Time;durP1;ratioP1;P1;durP2;ratioP2;P2;SDS_P1;SDS_P2;PMS_P1;PMS_P2;Temp;Humidity;BMP_temperature;BMP_pressure;BME280_temperature;BME280_humidity;BME280_pressure;Samples;Min_cycle;Max_cycle;Signal;HPM_P1;HPM_P2
2023/01/20 00:00:48;;;;;;;7.13;6.93;;;;;;;7.89;100.00;91877.63;5090232;28;20231;-80
2023/01/20 00:03:13;;;;;;;8.50;8.10;;;;;;;7.68;100.00;91881.56;5090219;28;20252;-79
2023/01/20 00:05:39;;;;;;;8.17;7.87;;;;;;;7.83;100.00;91876.16;5091503;28;20239;-79
2023/01/20 00:08:04;;;;;;;6.97;6.67;;;;;;;7.76;100.00;91872.38;5090787;28;20210;-80
2023/01/20 00:10:30;;;;;;;7.40;7.20;;;;;;;7.82;100.00;91866.06;5089558;28;20283;-77
2023/01/20 00:12:55;;;;;;;7.80;7.60;;;;;;;7.62;100.00;91861.88;5091061;28;20183;-77
2023/01/20 00:15:20;;;;;;;9.13;8.63;;;;;;;7.82;100.00;91894.63;5089169;28;20254;-77
2023/01/20 00:17:46;;;;;;;8.10;7.80;;;;;;;7.69;100.00;91849.31;5090194;28;20191;-77
2023/01/20 00:20:11;;;;;;;7.63;7.43;;;;;;;7.68;100.00;91762.06;5089478;28;20292;-77
2023/01/20 00:22:41;;;;;;;7.93;7.73;;;;;;;7.52;100.00;91746.97;5091091;28;20211;-76
2023/01/20 00:25:08;;;;;;;8.93;8.53;;;;;;;7.49;100.00;91750.13;5088889;28;20232;-76
2023/01/20 00:27:33;;;;;;;8.73;8.37;;;;;;;7.20;100.00;91729.47;5090270;28;20184;-77
2023/01/20 00:29:59;;;;;;;11.33;10.53;;;;;;;7.30;100.00;91734.53;5089758;28;20228;-76
2023/01/20 00:32:24;;;;;;;10.83;10.03;;;;;;;7.55;100.00;91715.22;5089951;28;20188;-77
2023/01/20 00:34:49;;;;;;;11.13;10.33;;;;;;;7.43;100.00;91689.72;5089407;28;20221;-78
2023/01/20 00:37:15;;;;;;;11.00;10.20;;;;;;;7.52;100.00;91695.81;5090951;28;20181;-77
2023/01/20 00:39:40;;;;;;;9.57;9.07;;;;;;;7.45;100.00;91671.25;5089228;28;20293;-78
2023/01/20 00:42:05;;;;;;;8.80;8.37;;;;;;;7.46;100.00;91650.19;5090082;28;20220;-76
2023/01/20 00:44:31;;;;;;;8.23;7.93;;;;;;;7.42;100.00;91659.63;5089462;28;20224;-77
2023/01/20 00:46:56;;;;;;;7.77;7.47;;;;;;;7.12;100.00;91633.31;5089891;28;20188;-76
2023/01/20 00:49:21;;;;;;;8.37;8.07;;;;;;;7.27;100.00;91652.03;5090496;28;20252;-77
2023/01/20 00:51:47;;;;;;;7.70;7.30;;;;;;;7.37;100.00;91651.09;5091438;28;20621;-76
2023/01/20 00:54:12;;;;;;;7.73;7.53;;;;;;;7.46;100.00;91639.03;5089749;28;20239;-78
2023/01/20 00:56:52;;;;;;;7.43;7.13;;;;;;;7.58;100.00;91640.13;5039516;28;20264;-76
2023/01/20 00:59:18;;;;;;;7.93;7.50;;;;;;;7.71;100.00;91617.84;5087886;28;20356;-77
2023/01/20 01:01:44;;;;;;;7.60;7.23;;;;;;;7.93;100.00;91642.19;5090234;28;20214;-77
2023/01/20 01:04:10;;;;;;;8.60;8.17;;;;;;;8.07;100.00;91629.97;5090934;28;20213;-76
2023/01/20 01:06:35;;;;;;;8.40;7.83;;;;;;;8.05;100.00;91589.72;5088938;28;20192;-77
2023/01/20 01:09:00;;;;;;;7.87;7.40;;;;;;;8.31;100.00;91644.66;5089410;28;20956;-78
2023/01/20 01:11:26;;;;;;;8.03;7.73;;;;;;;8.30;100.00;91617.09;5091917;28;20203;-78
2023/01/20 01:13:54;;;;;;;8.77;8.20;;;;;;;8.30;100.00;91627.50;5088645;28;20219;-77
2023/01/20 01:16:19;;;;;;;8.33;8.03;;;;;;;8.55;97.44;91637.44;5088924;28;20173;-78
2023/01/20 01:18:44;;;;;;;7.87;7.60;;;;;;;8.50;99.97;91606.34;5089231;28;20212;-76
2023/01/20 01:21:13;;;;;;;8.10;7.80;;;;;;;8.35;100.00;91624.81;5088702;28;20231;-81
2023/01/20 01:23:38;;;;;;;7.33;7.03;;;;;;;8.45;100.00;91653.25;5088499;28;20185;-80
2023/01/20 01:26:04;;;;;;;8.17;7.73;;;;;;;8.46;100.00;91646.97;5088994;28;20287;-80
2023/01/20 01:28:30;;;;;;;8.57;7.87;;;;;;;8.48;100.00;91645.66;5089617;28;20200;-79
2023/01/20 01:30:59;;;;;;;8.63;8.40;;;;;;;8.46;95.55;91636.56;5088566;28;20229;-81
2023/01/20 01:33:24;;;;;;;8.43;7.97;;;;;;;8.56;100.00;91647.56;5122322;28;20180;-80
2023/01/20 01:35:54;;;;;;;8.63;8.27;;;;;;;8.66;100.00;91651.78;5090707;28;20228;-80
2023/01/20 01:38:20;;;;;;;8.60;8.30;;;;;;;8.61;99.95;91638.88;5089113;28;20279;-80
2023/01/20 01:40:49;;;;;;;7.77;7.47;;;;;;;8.57;99.79;91630.13;5088863;28;20208;-80
2023/01/20 01:43:24;;;;;;;8.43;7.93;;;;;;;8.45;100.00;91648.81;5087692;28;20196;-81
2023/01/20 01:45:49;;;;;;;8.93;8.63;;;;;;;8.34;100.00;91633.69;5088624;28;20269;-80
2023/01/20 01:48:15;;;;;;;8.40;8.10;;;;;;;8.34;100.00;91646.69;5088935;28;20184;-80
2023/01/20 01:50:57;;;;;;;8.23;7.93;;;;;;;8.40;100.00;91658.53;5089427;28;20835;-80
2023/01/20 01:53:25;;;;;;;8.30;8.00;;;;;;;8.13;100.00;91643.66;5103235;28;20195;-80
2023/01/20 01:55:55;;;;;;;8.20;7.70;;;;;;;8.05;100.00;91649.50;5088461;28;20272;-80
2023/01/20 01:58:26;;;;;;;9.20;8.83;;;;;;;7.71;100.00;91636.03;5089435;28;20223;-79
2023/01/20 02:00:51;;;;;;;8.37;8.10;;;;;;;7.82;100.00;91648.59;5089146;28;20220;-80
2023/01/20 02:03:18;;;;;;;7.77;7.53;;;;;;;7.72;100.00;91651.34;5123116;28;20205;-80
2023/01/20 02:05:45;;;;;;;9.20;8.83;;;;;;;7.89;100.00;91659.38;5087426;28;20224;-81
2023/01/20 02:08:10;;;;;;;8.37;8.07;;;;;;;7.69;100.00;91619.97;5086416;28;20211;-80
2023/01/20 02:10:35;;;;;;;8.17;7.87;;;;;;;7.75;100.00;91645.56;5088418;28;20224;-80
2023/01/20 02:13:02;;;;;;;8.47;8.17;;;;;;;7.70;100.00;91624.91;5088434;28;20191;-80
2023/01/20 02:15:38;;;;;;;8.33;7.93;;;;;;;7.68;100.00;91627.00;5088732;28;20229;-82
2023/01/20 02:18:15;;;;;;;8.77;8.37;;;;;;;7.67;100.00;91630.63;5088874;28;20252;-86
2023/01/20 02:20:56;;;;;;;8.47;8.17;;;;;;;7.88;100.00;91634.47;5091890;28;20254;-86
2023/01/20 02:24:00;;;;;;;7.53;7.23;;;;;;;7.78;100.00;91628.66;5092613;28;20181;-86
2023/01/20 02:26:41;;;;;;;8.63;8.33;;;;;;;7.64;100.00;91649.38;5070586;28;20227;-85
2023/01/20 02:29:34;;;;;;;8.60;8.10;;;;;;;7.70;100.00;91627.50;5074288;28;20197;-85
2023/01/20 02:32:05;;;;;;;9.90;9.40;;;;;;;7.50;100.00;91630.38;5092198;28;20261;-85
2023/01/20 02:34:34;;;;;;;8.73;8.43;;;;;;;7.48;100.00;91635.13;5091700;28;20225;-86
2023/01/20 02:37:09;;;;;;;7.83;7.53;;;;;;;7.34;100.00;91631.69;5107883;28;20193;-85
2023/01/20 02:39:47;;;;;;;8.60;8.30;;;;;;;7.27;100.00;91635.69;5089287;28;20231;-85
2023/01/20 02:42:23;;;;;;;8.07;7.77;;;;;;;7.24;100.00;91621.44;5124590;27;20227;-86
2023/01/20 02:44:51;;;;;;;9.13;8.73;;;;;;;7.39;100.00;91605.63;5090895;28;20232;-86
2023/01/20 02:47:33;;;;;;;7.97;7.67;;;;;;;7.23;100.00;91596.56;5091819;28;20248;-86
2023/01/20 02:50:08;;;;;;;9.13;8.83;;;;;;;7.43;100.00;91604.03;5090529;28;20228;-85
2023/01/20 02:52:38;;;;;;;8.10;7.80;;;;;;;7.42;100.00;91586.13;5089084;28;20228;-85
2023/01/20 02:55:09;;;;;;;8.17;7.87;;;;;;;7.42;100.00;91592.09;5123270;28;20240;-86
2023/01/20 02:57:45;;;;;;;7.70;7.40;;;;;;;7.21;100.00;91584.91;5091676;28;20255;-84
2023/01/20 03:00:24;;;;;;;7.67;7.37;;;;;;;7.31;100.00;91595.13;5092142;28;20232;-84
2023/01/20 03:02:53;;;;;;;8.70;8.40;;;;;;;7.29;100.00;91594.63;5091777;28;20195;-86
2023/01/20 03:05:28;;;;;;;8.37;8.07;;;;;;;7.38;100.00;91600.72;5107104;28;20224;-84
2023/01/20 03:07:56;;;;;;;8.40;8.10;;;;;;;7.36;100.00;91606.19;5090221;28;20191;-86
2023/01/20 03:10:25;;;;;;;7.83;7.63;;;;;;;7.24;100.00;91599.91;5092284;28;20224;-85
2023/01/20 03:12:58;;;;;;;8.67;8.37;;;;;;;7.38;100.00;91608.50;5106722;28;20195;-86
2023/01/20 03:15:42;;;;;;;8.43;8.13;;;;;;;7.47;100.00;91605.00;5091038;28;20204;-85
2023/01/20 03:18:07;;;;;;;8.10;7.80;;;;;;;7.40;100.00;91607.19;5090742;28;20184;-86
2023/01/20 03:20:32;;;;;;;8.03;7.73;;;;;;;7.35;100.00;91586.50;5091243;28;20228;-86
2023/01/20 03:22:58;;;;;;;9.20;8.80;;;;;;;7.45;100.00;91611.53;5091895;28;20211;-86
2023/01/20 03:25:24;;;;;;;7.87;7.57;;;;;;;7.38;100.00;91588.53;5091005;28;20255;-84
2023/01/20 03:27:50;;;;;;;8.97;8.47;;;;;;;7.53;100.00;91603.09;5090317;28;20196;-85
2023/01/20 03:30:16;;;;;;;8.13;7.73;;;;;;;7.38;100.00;91611.88;5122673;27;20220;-85
2023/01/20 03:32:44;;;;;;;8.50;8.20;;;;;;;7.35;100.00;91609.84;5091648;28;20193;-86
2023/01/20 03:35:14;;;;;;;9.50;9.00;;;;;;;7.34;100.00;91616.13;5090589;28;20266;-85
2023/01/20 03:37:40;;;;;;;8.70;8.30;;;;;;;7.28;100.00;91588.69;5090479;28;20185;-83
2023/01/20 03:40:06;;;;;;;9.40;9.00;;;;;;;7.43;100.00;91611.81;5092388;28;20235;-84
2023/01/20 03:43:00;;;;;;;8.60;8.30;;;;;;;7.43;100.00;91611.81;5090752;28;20189;-85
2023/01/20 03:45:59;;;;;;;8.20;7.87;;;;;;;7.43;100.00;91603.25;5090178;28;20228;-86
2023/01/20 03:48:34;;;;;;;8.90;7.60;;;;;;;7.26;100.00;91601.19;5090728;28;20196;-85
2023/01/20 03:51:30;;;;;;;8.40;7.97;;;;;;;7.23;100.00;91588.75;5089789;28;20300;-86
2023/01/20 03:54:02;;;;;;;8.33;7.93;;;;;;;7.22;100.00;91553.47;5089428;28;20183;-85
2023/01/20 03:56:36;;;;;;;7.47;7.27;;;;;;;7.22;100.00;91561.25;5090758;28;20192;-84
2023/01/20 03:59:03;;;;;;;7.93;7.63;;;;;;;7.48;100.00;91559.03;5088324;28;20235;-86
2023/01/20 04:01:35;;;;;;;7.63;7.33;;;;;;;7.52;100.00;91565.97;5105571;28;20694;-87
2023/01/20 04:04:02;;;;;;;8.20;7.80;;;;;;;7.57;100.00;91536.53;5089994;28;20192;-87
2023/01/20 04:06:30;;;;;;;8.73;8.43;;;;;;;7.63;100.00;91548.38;5090300;28;20260;-81
2023/01/20 04:09:01;;;;;;;7.60;7.40;;;;;;;7.62;100.00;91545.03;5089707;28;20252;-85
2023/01/20 04:11:27;;;;;;;7.87;7.57;;;;;;;7.62;100.00;91537.25;5089893;28;20227;-88
2023/01/20 04:13:52;;;;;;;8.27;8.03;;;;;;;7.55;100.00;91538.66;5090036;28;20181;-85
2023/01/20 04:16:19;;;;;;;7.93;7.73;;;;;;;7.61;100.00;91535.69;5105980;28;20185;-86
2023/01/20 04:18:47;;;;;;;8.33;8.00;;;;;;;7.60;100.00;91526.34;5090186;28;20212;-84
2023/01/20 04:21:41;;;;;;;7.77;7.57;;;;;;;7.64;100.00;91511.72;5123869;27;20782;-86
2023/01/20 04:24:13;;;;;;;8.00;7.80;;;;;;;7.56;100.00;91509.81;5088971;28;20177;-87
2023/01/20 04:26:39;;;;;;;8.07;7.60;;;;;;;7.70;100.00;91509.84;5090565;28;20193;-87
2023/01/20 04:29:07;;;;;;;7.60;7.40;;;;;;;7.72;100.00;91507.72;5089091;28;20192;-86
2023/01/20 04:31:34;;;;;;;8.43;8.03;;;;;;;7.69;100.00;91518.66;5091395;28;20189;-84
2023/01/20 04:33:59;;;;;;;7.37;7.17;;;;;;;7.69;100.00;91516.84;5089310;28;20196;-80
2023/01/20 04:36:25;;;;;;;8.47;8.07;;;;;;;7.59;100.00;91518.84;5090159;28;20649;-81
2023/01/20 04:38:50;;;;;;;11.07;10.33;;;;;;;7.90;100.00;91523.22;5088946;28;20258;-80
2023/01/20 04:41:15;;;;;;;10.80;9.93;;;;;;;7.60;100.00;91523.75;5089925;28;20192;-82
2023/01/20 04:43:44;;;;;;;9.83;9.13;;;;;;;7.45;100.00;91531.81;5089057;28;20173;-81
2023/01/20 04:46:11;;;;;;;9.13;8.70;;;;;;;7.33;100.00;91518.50;5090150;28;20227;-83
2023/01/20 04:48:36;;;;;;;8.73;8.20;;;;;;;7.30;100.00;91505.34;5089367;28;20189;-84
2023/01/20 04:51:06;;;;;;;8.53;8.13;;;;;;;7.47;100.00;91529.69;5088565;28;20236;-83
2023/01/20 04:53:32;;;;;;;9.73;9.23;;;;;;;7.45;100.00;91533.63;5088784;28;20192;-76
2023/01/20 04:55:58;;;;;;;9.30;8.80;;;;;;;7.43;100.00;91533.16;5087824;28;20251;-81
2023/01/20 04:58:23;;;;;;;9.37;8.47;;;;;;;7.14;100.00;91524.81;5089221;28;20188;-86
2023/01/20 05:00:48;;;;;;;8.80;8.07;;;;;;;7.24;100.00;91533.19;5086715;28;20239;-86
2023/01/20 05:03:14;;;;;;;8.20;7.67;;;;;;;7.29;100.00;91540.91;5086856;28;20188;-82
2023/01/20 05:05:39;;;;;;;9.90;9.30;;;;;;;7.36;100.00;91553.53;5086087;28;20246;-76
2023/01/20 05:08:05;;;;;;;10.37;9.47;;;;;;;7.23;100.00;91538.66;5087345;28;20203;-77
2023/01/20 05:10:33;;;;;;;8.63;8.03;;;;;;;7.20;100.00;91545.22;5086472;28;20758;-76
2023/01/20 05:13:00;;;;;;;9.10;8.43;;;;;;;7.02;100.00;91553.78;5086744;28;20260;-75
2023/01/20 05:15:25;;;;;;;9.13;8.53;;;;;;;6.87;100.00;91564.38;5086550;28;20231;-75
2023/01/20 05:17:50;;;;;;;8.80;8.20;;;;;;;7.16;100.00;91564.97;5089817;28;20169;-74
2023/01/20 05:20:17;;;;;;;8.57;8.17;;;;;;;7.24;100.00;91566.94;5088615;28;20254;-74
2023/01/20 05:22:43;;;;;;;9.17;8.63;;;;;;;7.24;100.00;91548.00;5090212;28;20180;-76
2023/01/20 05:25:09;;;;;;;10.03;9.53;;;;;;;7.16;100.00;91567.56;5088660;28;20342;-77
2023/01/20 05:27:34;;;;;;;9.73;9.33;;;;;;;7.07;100.00;91564.09;5089109;28;20192;-75
2023/01/20 05:30:00;;;;;;;9.23;8.50;;;;;;;7.28;100.00;91574.94;5088709;28;20229;-82
2023/01/20 05:32:25;;;;;;;9.37;8.73;;;;;;;7.36;100.00;91595.81;5088976;28;20184;-75
2023/01/20 05:34:50;;;;;;;9.73;9.23;;;;;;;7.40;100.00;91593.44;5087870;28;20259;-72
2023/01/20 05:37:17;;;;;;;10.23;9.63;;;;;;;7.54;100.00;91583.84;5089856;28;20189;-74
2023/01/20 05:39:42;;;;;;;10.67;10.07;;;;;;;7.48;100.00;91588.38;5088126;28;20251;-76
2023/01/20 05:42:08;;;;;;;11.93;11.13;;;;;;;7.05;100.00;91573.97;5087576;28;20207;-83
2023/01/20 05:44:34;;;;;;;11.40;10.40;;;;;;;7.21;100.00;91585.66;5088172;28;20228;-83
2023/01/20 05:47:00;;;;;;;11.47;10.67;;;;;;;7.18;100.00;91570.66;5087997;28;20189;-83
2023/01/20 05:49:25;;;;;;;10.97;10.23;;;;;;;7.31;100.00;91590.72;5088380;28;20235;-82
2023/01/20 05:51:50;;;;;;;10.90;10.10;;;;;;;7.35;100.00;91576.13;5088303;28;20286;-81
2023/01/20 05:54:16;;;;;;;12.07;11.13;;;;;;;7.42;100.00;91553.16;5091065;28;21151;-83
2023/01/20 05:56:41;;;;;;;10.67;9.97;;;;;;;7.39;100.00;91553.72;5093211;28;20232;-83
2023/01/20 05:59:07;;;;;;;10.43;9.70;;;;;;;7.50;100.00;91572.50;5092213;28;20197;-82
2023/01/20 06:01:32;;;;;;;10.83;10.03;;;;;;;7.38;100.00;91580.72;5093101;28;20181;-85
2023/01/20 06:03:57;;;;;;;11.77;10.73;;;;;;;7.49;100.00;91571.72;5092318;28;20169;-84
2023/01/20 06:06:23;;;;;;;12.10;10.97;;;;;;;7.37;100.00;91578.41;5092874;28;20208;-83
2023/01/20 06:08:51;;;;;;;13.87;12.43;;;;;;;7.31;100.00;91575.16;5092866;28;20189;-83
2023/01/20 06:11:16;;;;;;;14.70;13.20;;;;;;;7.37;100.00;91581.81;5092018;28;20226;-83
2023/01/20 06:13:43;;;;;;;13.03;11.83;;;;;;;7.42;100.00;91571.34;5093560;28;20189;-83
2023/01/20 06:16:08;;;;;;;12.17;10.97;;;;;;;7.51;100.00;91574.81;5091875;28;20232;-83
2023/01/20 06:18:34;;;;;;;11.77;10.87;;;;;;;7.52;100.00;91565.19;5092150;28;20325;-81
2023/01/20 06:20:59;;;;;;;11.53;10.53;;;;;;;7.40;100.00;91572.66;5091879;28;20228;-81
2023/01/20 06:23:25;;;;;;;10.67;9.80;;;;;;;7.51;100.00;91603.38;5092630;28;20248;-83
2023/01/20 06:26:06;;;;;;;15.07;11.93;;;;;;;7.33;100.00;91583.41;5091011;28;20228;-83
2023/01/20 06:28:32;;;;;;;13.20;10.97;;;;;;;7.52;100.00;91591.94;5092455;28;20216;-81
2023/01/20 06:31:01;;;;;;;12.00;10.77;;;;;;;7.50;100.00;91580.31;5093222;28;20256;-83
2023/01/20 06:33:27;;;;;;;9.57;8.97;;;;;;;7.49;100.00;91571.72;5092320;28;20181;-84
2023/01/20 06:35:54;;;;;;;10.70;10.00;;;;;;;7.47;100.00;91584.22;5092298;28;20216;-84
2023/01/20 06:38:21;;;;;;;9.57;8.77;;;;;;;7.18;100.00;91536.94;5092070;28;20193;-80
2023/01/20 06:40:46;;;;;;;8.70;8.30;;;;;;;7.27;100.00;91540.41;5091485;28;20232;-83
2023/01/20 06:43:12;;;;;;;9.10;8.60;;;;;;;7.36;100.00;91550.94;5092953;28;20185;-83
2023/01/20 06:45:37;;;;;;;10.13;9.20;;;;;;;7.37;100.00;91548.06;5091432;28;20220;-83
2023/01/20 06:48:03;;;;;;;10.07;9.37;;;;;;;7.26;100.00;91551.84;5091740;28;20214;-83
2023/01/20 06:50:28;;;;;;;9.87;9.37;;;;;;;7.23;100.00;91544.66;5091975;28;20254;-84
2023/01/20 06:52:54;;;;;;;7.73;7.43;;;;;;;7.15;100.00;91540.09;5091832;28;20257;-85
2023/01/20 06:55:20;;;;;;;8.53;8.23;;;;;;;7.16;100.00;91535.69;5091369;28;20231;-83
2023/01/20 06:57:45;;;;;;;8.53;8.13;;;;;;;7.01;100.00;91549.66;5092608;28;20256;-83
2023/01/20 07:00:11;;;;;;;8.33;7.93;;;;;;;7.04;100.00;91538.69;5092059;28;20220;-84
2023/01/20 07:02:36;;;;;;;8.50;8.07;;;;;;;7.16;100.00;91540.88;5092139;28;20173;-83
2023/01/20 07:05:03;;;;;;;8.90;8.50;;;;;;;7.04;100.00;91525.72;5090036;28;20221;-83
2023/01/20 07:07:28;;;;;;;8.77;8.37;;;;;;;7.07;100.00;91519.19;5091595;28;20215;-83
2023/01/20 07:09:54;;;;;;;8.50;8.20;;;;;;;6.96;100.00;91534.16;5089861;28;20225;-83
2023/01/20 07:12:19;;;;;;;8.07;7.57;;;;;;;6.89;100.00;91515.59;5092405;28;20200;-85
2023/01/20 07:14:45;;;;;;;8.07;7.37;;;;;;;7.21;100.00;91544.16;5106657;28;20225;-84
2023/01/20 07:17:11;;;;;;;9.57;9.00;;;;;;;6.93;100.00;91518.38;5089944;28;20192;-84
2023/01/20 07:19:36;;;;;;;9.07;8.57;;;;;;;6.93;100.00;91510.59;5090465;28;20246;-83
2023/01/20 07:22:02;;;;;;;7.70;7.40;;;;;;;6.84;100.00;91526.03;5091165;28;20236;-83
2023/01/20 07:24:27;;;;;;;8.50;8.10;;;;;;;6.60;100.00;91532.38;5091180;28;20270;-83
2023/01/20 07:26:52;;;;;;;8.17;7.77;;;;;;;6.70;100.00;91540.75;5091822;28;20177;-83
2023/01/20 07:29:18;;;;;;;8.27;7.97;;;;;;;6.87;100.00;91546.22;5091456;28;20879;-75
2023/01/20 07:31:44;;;;;;;8.47;8.17;;;;;;;6.98;100.00;91555.41;5091255;28;20211;-82
2023/01/20 07:34:09;;;;;;;9.20;8.80;;;;;;;6.71;100.00;91551.91;5091144;28;20228;-73
2023/01/20 07:36:35;;;;;;;11.00;10.13;;;;;;;6.82;100.00;91545.53;5090779;28;20181;-74
2023/01/20 07:39:00;;;;;;;11.90;11.20;;;;;;;6.57;100.00;91532.91;5090862;28;20709;-72
2023/01/20 07:41:26;;;;;;;11.73;10.93;;;;;;;6.67;100.00;91530.97;5090082;28;20202;-74
2023/01/20 07:43:52;;;;;;;12.67;11.63;;;;;;;6.89;100.00;91544.13;5090154;28;20196;-71
2023/01/20 07:46:18;;;;;;;10.83;10.20;;;;;;;6.93;100.00;91547.69;5088519;28;20188;-72
2023/01/20 07:48:44;;;;;;;10.70;10.03;;;;;;;7.03;100.00;91541.59;5089314;28;20245;-73
2023/01/20 07:51:11;;;;;;;11.83;10.83;;;;;;;7.07;100.00;91558.13;5089943;28;20241;-74
2023/01/20 07:53:39;;;;;;;11.67;10.53;;;;;;;7.18;100.00;91555.09;5090752;28;20177;-74
2023/01/20 07:56:07;;;;;;;11.40;10.77;;;;;;;7.27;100.00;91537.06;5091040;28;20204;-74
2023/01/20 07:58:33;;;;;;;12.17;11.17;;;;;;;7.27;100.00;91531.88;5091236;28;20225;-74
2023/01/20 08:01:22;;;;;;;12.93;11.93;;;;;;;7.37;100.00;91552.47;5088262;28;20220;-74
2023/01/20 08:03:48;;;;;;;11.90;11.00;;;;;;;7.37;100.00;91550.66;5090841;28;20188;-74
2023/01/20 08:06:15;;;;;;;12.13;11.33;;;;;;;7.35;100.00;91544.97;5089730;28;20225;-74
2023/01/20 08:08:40;;;;;;;14.10;13.00;;;;;;;7.61;100.00;91527.88;5092249;28;20204;-74
2023/01/20 08:11:07;;;;;;;19.63;14.70;;;;;;;7.61;100.00;91511.56;5089969;28;20263;-75
2023/01/20 08:13:33;;;;;;;12.53;11.37;;;;;;;7.43;100.00;91494.97;5091508;28;20189;-74
2023/01/20 08:16:00;;;;;;;11.30;10.50;;;;;;;7.40;100.00;91505.94;5084502;28;20224;-75
2023/01/20 08:18:26;;;;;;;11.43;10.63;;;;;;;7.41;100.00;91507.47;5088079;28;20269;-73
2023/01/20 08:20:51;;;;;;;12.50;11.50;;;;;;;7.34;100.00;91503.72;5088283;28;20227;-75
2023/01/20 08:23:17;;;;;;;13.30;12.10;;;;;;;7.33;100.00;91489.19;5089148;28;20197;-74
2023/01/20 08:25:42;;;;;;;15.80;12.93;;;;;;;7.23;100.00;91491.94;5087948;28;20220;-75
2023/01/20 08:28:07;;;;;;;11.20;10.30;;;;;;;7.33;100.00;91495.13;5087728;28;20922;-73
2023/01/20 08:30:33;;;;;;;9.63;9.03;;;;;;;7.35;100.00;91479.28;5088326;28;20224;-72
2023/01/20 08:32:59;;;;;;;9.50;9.00;;;;;;;7.44;100.00;91485.38;5089103;28;20184;-74
2023/01/20 08:35:24;;;;;;;9.27;8.87;;;;;;;7.55;100.00;91471.91;5084037;28;20220;-75
2023/01/20 08:37:49;;;;;;;7.90;7.37;;;;;;;7.42;100.00;91459.69;5087519;28;20201;-72
2023/01/20 08:40:15;;;;;;;8.47;7.83;;;;;;;7.69;100.00;91448.53;5088556;28;20216;-72
2023/01/20 08:42:40;;;;;;;8.27;7.97;;;;;;;7.74;100.00;91428.44;5087536;28;20176;-71
2023/01/20 08:45:07;;;;;;;8.70;8.20;;;;;;;7.95;100.00;91441.81;5086297;28;20235;-72
2023/01/20 08:47:37;;;;;;;9.37;8.77;;;;;;;7.99;100.00;91437.56;5087239;28;20176;-73
2023/01/20 08:50:05;;;;;;;9.97;9.37;;;;;;;8.09;100.00;91429.56;5086896;28;20228;-72
2023/01/20 08:52:31;;;;;;;9.20;8.60;;;;;;;8.16;100.00;91425.50;5088123;28;20251;-72
2023/01/20 08:54:57;;;;;;;10.13;9.30;;;;;;;8.27;100.00;91420.88;5087523;28;20251;-73
2023/01/20 08:57:25;;;;;;;9.47;8.77;;;;;;;8.28;100.00;91406.06;5088362;28;20252;-72
2023/01/20 08:59:52;;;;;;;11.27;10.37;;;;;;;8.57;100.00;91429.84;5087516;28;20336;-72
2023/01/20 09:02:17;;;;;;;10.47;9.77;;;;;;;8.31;100.00;91437.44;5086781;28;20208;-73
2023/01/20 09:04:42;;;;;;;12.00;10.90;;;;;;;8.13;100.00;91444.28;5087836;28;20228;-72
2023/01/20 09:07:11;;;;;;;11.33;10.40;;;;;;;7.63;100.00;91437.50;5087079;28;20188;-71
2023/01/20 09:09:37;;;;;;;10.37;9.67;;;;;;;8.39;100.00;91441.19;5087298;28;20292;-72
2023/01/20 09:12:03;;;;;;;10.83;9.73;;;;;;;7.94;100.00;91417.66;5088784;28;20199;-71
2023/01/20 09:14:28;;;;;;;11.27;10.37;;;;;;;8.17;100.00;91447.81;5087074;28;20317;-72
2023/01/20 09:16:54;;;;;;;10.83;10.03;;;;;;;8.49;100.00;91446.16;5088805;28;20195;-72
2023/01/20 09:19:19;;;;;;;11.03;10.33;;;;;;;8.36;100.00;91444.38;5086753;28;20284;-72
2023/01/20 09:21:45;;;;;;;10.83;10.13;;;;;;;8.81;100.00;91438.16;5089139;28;20222;-72
2023/01/20 09:24:10;;;;;;;10.37;9.73;;;;;;;9.07;100.00;91465.09;5086771;28;20217;-72
2023/01/20 09:26:38;;;;;;;12.10;11.40;;;;;;;8.43;100.00;91466.31;5088797;28;20180;-72
2023/01/20 09:29:09;;;;;;;12.80;11.63;;;;;;;8.44;100.00;91459.25;5089052;28;20185;-72
2023/01/20 09:31:43;;;;;;;12.80;11.60;;;;;;;8.35;100.00;91454.00;5090805;28;20169;-72
2023/01/20 09:34:09;;;;;;;11.50;10.90;;;;;;;8.33;100.00;91447.56;5091226;28;20220;-72
2023/01/20 09:36:35;;;;;;;11.60;10.80;;;;;;;8.98;100.00;91457.22;5091231;28;20180;-72
2023/01/20 09:44:55;;;;;;;10.50;9.63;;;;;;;9.03;100.00;91456.34;5072548;28;20239;-71
2023/01/20 09:47:28;;;;;;;9.13;8.73;;;;;;;9.17;100.00;91457.03;5091927;28;20199;-72
2023/01/20 09:55:46;;;;;;;8.90;8.40;;;;;;;9.22;100.00;91431.66;5092479;28;20239;-73
2023/01/20 09:58:26;;;;;;;9.70;9.13;;;;;;;9.50;100.00;91429.63;5090683;28;20206;-73
2023/01/20 10:01:14;;;;;;;9.40;8.83;;;;;;;10.03;100.00;91425.06;5090465;28;20225;-73
2023/01/20 10:04:02;;;;;;;8.33;7.90;;;;;;;10.11;99.77;91421.75;5093197;28;20217;-73
2023/01/20 10:06:44;;;;;;;9.57;9.17;;;;;;;10.46;97.90;91417.34;5063386;28;20233;-73
2023/01/20 10:09:30;;;;;;;9.43;8.70;;;;;;;10.47;98.46;91417.03;5091365;28;20235;-72
2023/01/20 10:12:06;;;;;;;8.83;8.33;;;;;;;10.41;96.30;91399.22;5091857;28;20197;-73
2023/01/20 10:14:40;;;;;;;8.23;7.87;;;;;;;9.86;98.62;91393.75;5092067;28;20231;-74
2023/01/20 10:17:29;;;;;;;9.40;8.90;;;;;;;9.97;100.00;91379.38;5090143;28;20198;-74
2023/01/20 10:20:02;;;;;;;8.70;8.30;;;;;;;10.30;92.64;91366.69;5091121;28;20232;-74
2023/01/20 10:23:39;;;;;;;10.00;9.40;;;;;;;10.25;98.14;91379.88;5090515;28;20218;-73
2023/01/20 10:26:25;;;;;;;10.33;9.83;;;;;;;10.09;100.00;91384.00;5072689;28;20231;-72
2023/01/20 10:29:00;;;;;;;9.80;9.30;;;;;;;10.01;99.00;91382.88;5088908;28;20196;-73
2023/01/20 10:31:29;;;;;;;7.80;7.50;;;;;;;10.46;97.48;91389.41;5090245;28;20184;-73
2023/01/20 10:34:03;;;;;;;8.40;8.10;;;;;;;10.66;95.60;91394.00;5091483;28;20221;-73
2023/01/20 10:36:30;;;;;;;8.17;7.87;;;;;;;10.97;95.80;91375.56;5092306;28;20185;-74
2023/01/20 10:39:09;;;;;;;8.20;7.80;;;;;;;10.86;92.35;91388.16;5091385;28;20228;-73
2023/01/20 10:41:47;;;;;;;10.27;9.60;;;;;;;9.50;97.50;91391.34;5091922;28;20180;-73
2023/01/20 10:44:14;;;;;;;9.27;8.67;;;;;;;8.97;100.00;91372.41;5089955;28;20223;-73
2023/01/20 10:46:54;;;;;;;9.80;9.30;;;;;;;8.83;100.00;91371.72;5092657;28;20249;-73
2023/01/20 10:50:02;;;;;;;10.50;9.90;;;;;;;8.99;100.00;91390.34;5094366;28;21154;-73
2023/01/20 10:52:58;;;;;;;9.50;8.90;;;;;;;9.43;100.00;91390.25;5056829;28;20239;-73
2023/01/20 10:55:36;;;;;;;8.93;8.53;;;;;;;9.23;100.00;91385.56;5090479;28;20213;-74
2023/01/20 10:58:22;;;;;;;10.70;10.00;;;;;;;9.52;100.00;91398.84;5090487;28;20342;-74
2023/01/20 11:00:48;;;;;;;17.67;15.07;;;;;;;9.57;100.00;91378.63;5106943;28;20238;-74
2023/01/20 11:03:17;;;;;;;12.37;11.53;;;;;;;9.48;100.00;91382.28;5092686;28;20185;-74
2023/01/20 11:05:45;;;;;;;11.37;10.40;;;;;;;9.23;100.00;91385.56;5091061;28;20245;-74
2023/01/20 11:08:17;;;;;;;10.53;9.83;;;;;;;9.09;100.00;91374.47;5091525;28;20189;-74
2023/01/20 11:10:43;;;;;;;14.00;12.73;;;;;;;8.74;100.00;91372.72;5091141;28;20753;-74
2023/01/20 11:13:10;;;;;;;12.77;11.57;;;;;;;8.78;100.00;91373.69;5091267;28;20189;-75
2023/01/20 11:15:42;;;;;;;12.63;11.43;;;;;;;8.75;100.00;91376.84;5090892;28;20231;-74
2023/01/20 11:18:13;;;;;;;12.00;11.23;;;;;;;8.67;100.00;91393.22;5090743;28;20197;-73
2023/01/20 11:20:59;;;;;;;12.30;11.40;;;;;;;8.45;100.00;91375.75;5091941;28;20228;-73
2023/01/20 11:23:35;;;;;;;10.03;9.43;;;;;;;8.37;100.00;91373.88;5090160;28;20196;-72
2023/01/20 11:26:29;;;;;;;11.07;10.27;;;;;;;8.19;100.00;91372.94;5092770;28;20278;-74
2023/01/20 11:29:02;;;;;;;10.67;9.97;;;;;;;8.37;100.00;91384.28;5077479;28;20201;-73
2023/01/20 11:31:46;;;;;;;10.67;9.97;;;;;;;8.48;100.00;91379.59;5088583;28;20185;-73
2023/01/20 11:34:27;;;;;;;12.00;11.20;;;;;;;8.27;100.00;91368.09;5090404;28;21037;-73
2023/01/20 11:37:05;;;;;;;12.33;11.33;;;;;;;7.92;100.00;91373.00;5089309;28;20216;-72
2023/01/20 11:39:33;;;;;;;14.17;12.97;;;;;;;7.97;100.00;91365.09;5089087;28;20221;-74
2023/01/20 11:42:20;;;;;;;12.53;11.43;;;;;;;8.02;100.00;91370.19;5090263;28;20196;-71
2023/01/20 11:44:48;;;;;;;12.83;11.77;;;;;;;7.78;100.00;91387.06;5096206;28;20229;-73
2023/01/20 11:47:28;;;;;;;14.50;13.23;;;;;;;7.95;100.00;91382.78;5089882;28;20886;-73
2023/01/20 11:50:03;;;;;;;13.00;12.10;;;;;;;8.24;100.00;91379.09;5086614;28;20232;-73
2023/01/20 11:52:29;;;;;;;12.57;11.63;;;;;;;8.01;100.00;91383.47;5086716;28;20228;-73